sensor_id;sensor_type;location;lat;lon;timestamp;temperature;humidity
18339;DHT22;9295;44.484;11.240;2023-02-18T00:01:44;7.20;99.90
18339;DHT22;9295;44.484;11.240;2023-02-18T00:04:13;7.30;99.90
18339;DHT22;9295;44.484;11.240;2023-02-18T00:06:43;7.20;99.90
18339;DHT22;9295;44.484;11.240;2023-02-18T00:09:11;7.30;99.90
18339;DHT22;9295;44.484;11.240;2023-02-18T00:11:40;7.30;99.90
18339;DHT22;9295;44.484;11.240;2023-02-18T00:14:11;7.30;99.90
18339;DHT22;9295;44.484;11.240;2023-02-18T00:16:40;7.30;99.90
18339;DHT22;9295;44.484;11.240;2023-02-18T00:19:12;7.30;99.90
18339;DHT22;9295;44.484;11.240;2023-02-18T00:21:42;7.30;99.90
18339;DHT22;9295;44.484;11.240;2023-02-18T00:24:13;7.20;99.90
18339;DHT22;9295;44.484;11.240;2023-02-18T00:26:42;7.20;99.90
18339;DHT22;9295;44.484;11.240;2023-02-18T00:29:11;7.10;99.90
18339;DHT22;9295;44.484;11.240;2023-02-18T00:31:40;7.10;99.90
18339;DHT22;9295;44.484;11.240;2023-02-18T00:34:10;7.10;99.90
18339;DHT22;9295;44.484;11.240;2023-02-18T00:36:39;7.10;99.90
18339;DHT22;9295;44.484;11.240;2023-02-18T00:39:10;7.10;99.90
18339;DHT22;9295;44.484;11.240;2023-02-18T00:41:38;7.10;99.90
18339;DHT22;9295;44.484;11.240;2023-02-18T00:44:07;7.10;99.90
18339;DHT22;9295;44.484;11.240;2023-02-18T00:46:36;7.10;99.90
18339;DHT22;9295;44.484;11.240;2023-02-18T00:49:05;7.10;99.90
18339;DHT22;9295;44.484;11.240;2023-02-18T00:51:34;7.10;99.90
18339;DHT22;9295;44.484;11.240;2023-02-18T00:54:03;7.20;99.90
18339;DHT22;9295;44.484;11.240;2023-02-18T00:56:33;7.20;99.90
18339;DHT22;9295;44.484;11.240;2023-02-18T00:59:02;7.20;99.90
18339;DHT22;9295;44.484;11.240;2023-02-18T01:01:30;7.20;99.90
18339;DHT22;9295;44.484;11.240;2023-02-18T01:03:59;7.20;99.90
18339;DHT22;9295;44.484;11.240;2023-02-18T01:06:28;7.10;99.90
18339;DHT22;9295;44.484;11.240;2023-02-18T01:08:56;7.10;99.90
18339;DHT22;9295;44.484;11.240;2023-02-18T01:11:25;7.10;99.90
18339;DHT22;9295;44.484;11.240;2023-02-18T01:13:55;7.10;99.90
18339;DHT22;9295;44.484;11.240;2023-02-18T01:16:24;7.10;99.90
18339;DHT22;9295;44.484;11.240;2023-02-18T01:18:53;7.10;99.90
18339;DHT22;9295;44.484;11.240;2023-02-18T01:21:21;7.10;99.90
18339;DHT22;9295;44.484;11.240;2023-02-18T01:23:52;7.10;99.90
18339;DHT22;9295;44.484;11.240;2023-02-18T01:26:20;7.10;99.90
18339;DHT22;9295;44.484;11.240;2023-02-18T01:28:49;7.00;99.90
18339;DHT22;9295;44.484;11.240;2023-02-18T01:31:19;7.00;99.90
18339;DHT22;9295;44.484;11.240;2023-02-18T01:33:47;7.00;99.90
18339;DHT22;9295;44.484;11.240;2023-02-18T01:36:16;7.00;99.90
18339;DHT22;9295;44.484;11.240;2023-02-18T01:38:44;7.00;99.90
18339;DHT22;9295;44.484;11.240;2023-02-18T01:41:13;6.90;99.90
18339;DHT22;9295;44.484;11.240;2023-02-18T01:43:42;6.90;99.90
18339;DHT22;9295;44.484;11.240;2023-02-18T01:46:17;6.90;99.90
18339;DHT22;9295;44.484;11.240;2023-02-18T01:48:50;6.80;99.90
18339;DHT22;9295;44.484;11.240;2023-02-18T01:51:23;6.80;99.90
18339;DHT22;9295;44.484;11.240;2023-02-18T01:53:55;6.70;99.90
18339;DHT22;9295;44.484;11.240;2023-02-18T01:56:29;6.70;99.90
18339;DHT22;9295;44.484;11.240;2023-02-18T01:59:01;6.60;99.90
18339;DHT22;9295;44.484;11.240;2023-02-18T02:01:31;6.60;99.90
18339;DHT22;9295;44.484;11.240;2023-02-18T02:04:02;6.50;99.90
18339;DHT22;9295;44.484;11.240;2023-02-18T02:06:30;6.40;99.90
18339;DHT22;9295;44.484;11.240;2023-02-18T02:09:02;6.30;99.90
18339;DHT22;9295;44.484;11.240;2023-02-18T02:11:51;6.30;99.90
18339;DHT22;9295;44.484;11.240;2023-02-18T02:17:26;6.20;99.90
18339;DHT22;9295;44.484;11.240;2023-02-18T02:20:41;6.20;99.90
18339;DHT22;9295;44.484;11.240;2023-02-18T02:23:33;6.20;99.90
18339;DHT22;9295;44.484;11.240;2023-02-18T02:29:55;6.20;99.90
18339;DHT22;9295;44.484;11.240;2023-02-18T02:32:56;6.20;99.90
18339;DHT22;9295;44.484;11.240;2023-02-18T02:35:33;6.10;99.90
18339;DHT22;9295;44.484;11.240;2023-02-18T02:38:08;6.20;99.90
18339;DHT22;9295;44.484;11.240;2023-02-18T02:40:45;6.20;99.90
18339;DHT22;9295;44.484;11.240;2023-02-18T02:43:23;6.10;99.90
18339;DHT22;9295;44.484;11.240;2023-02-18T02:45:59;6.10;99.90
18339;DHT22;9295;44.484;11.240;2023-02-18T02:48:34;6.10;99.90
18339;DHT22;9295;44.484;11.240;2023-02-18T02:51:09;6.10;99.90
18339;DHT22;9295;44.484;11.240;2023-02-18T02:53:40;6.00;99.90
18339;DHT22;9295;44.484;11.240;2023-02-18T02:56:13;6.10;99.90
18339;DHT22;9295;44.484;11.240;2023-02-18T02:58:44;6.10;99.90
18339;DHT22;9295;44.484;11.240;2023-02-18T03:01:24;6.10;99.90
18339;DHT22;9295;44.484;11.240;2023-02-18T03:04:12;6.10;99.90
18339;DHT22;9295;44.484;11.240;2023-02-18T03:07:10;6.10;99.90
18339;DHT22;9295;44.484;11.240;2023-02-18T03:09:53;6.00;99.90
18339;DHT22;9295;44.484;11.240;2023-02-18T03:12:33;6.00;99.90
18339;DHT22;9295;44.484;11.240;2023-02-18T03:15:07;6.00;99.90
18339;DHT22;9295;44.484;11.240;2023-02-18T03:17:44;6.00;99.90
18339;DHT22;9295;44.484;11.240;2023-02-18T03:20:18;5.90;99.90
18339;DHT22;9295;44.484;11.240;2023-02-18T03:22:52;5.90;99.90
18339;DHT22;9295;44.484;11.240;2023-02-18T03:25:24;5.90;99.90
18339;DHT22;9295;44.484;11.240;2023-02-18T03:27:55;5.80;99.90
18339;DHT22;9295;44.484;11.240;2023-02-18T03:30:27;5.80;99.90
18339;DHT22;9295;44.484;11.240;2023-02-18T03:33:01;5.70;99.90
18339;DHT22;9295;44.484;11.240;2023-02-18T03:35:31;5.70;99.90
18339;DHT22;9295;44.484;11.240;2023-02-18T03:38:08;5.60;99.90
18339;DHT22;9295;44.484;11.240;2023-02-18T03:40:39;5.60;99.90
18339;DHT22;9295;44.484;11.240;2023-02-18T03:43:08;5.60;99.90
18339;DHT22;9295;44.484;11.240;2023-02-18T03:45:37;5.60;99.90
18339;DHT22;9295;44.484;11.240;2023-02-18T03:48:07;5.60;99.90
18339;DHT22;9295;44.484;11.240;2023-02-18T03:50:35;5.60;99.90
18339;DHT22;9295;44.484;11.240;2023-02-18T03:53:05;5.60;99.90
18339;DHT22;9295;44.484;11.240;2023-02-18T03:55:34;5.60;99.90
18339;DHT22;9295;44.484;11.240;2023-02-18T03:58:02;5.50;99.90
18339;DHT22;9295;44.484;11.240;2023-02-18T04:00:31;5.50;99.90
18339;DHT22;9295;44.484;11.240;2023-02-18T04:03:00;5.50;99.90
18339;DHT22;9295;44.484;11.240;2023-02-18T04:05:28;5.40;99.90
18339;DHT22;9295;44.484;11.240;2023-02-18T04:07:57;5.40;99.90
18339;DHT22;9295;44.484;11.240;2023-02-18T04:10:27;5.30;99.90
18339;DHT22;9295;44.484;11.240;2023-02-18T04:12:55;5.40;99.90
18339;DHT22;9295;44.484;11.240;2023-02-18T04:15:23;5.30;99.90
18339;DHT22;9295;44.484;11.240;2023-02-18T04:17:52;5.40;99.90
18339;DHT22;9295;44.484;11.240;2023-02-18T04:20:20;5.40;99.90
18339;DHT22;9295;44.484;11.240;2023-02-18T04:22:49;5.40;99.90
18339;DHT22;9295;44.484;11.240;2023-02-18T04:25:18;5.40;99.90
18339;DHT22;9295;44.484;11.240;2023-02-18T04:27:48;5.40;99.90
18339;DHT22;9295;44.484;11.240;2023-02-18T04:30:16;5.50;99.90
18339;DHT22;9295;44.484;11.240;2023-02-18T04:32:45;5.50;99.90
18339;DHT22;9295;44.484;11.240;2023-02-18T04:35:14;5.50;99.90
18339;DHT22;9295;44.484;11.240;2023-02-18T04:37:42;5.50;99.90
18339;DHT22;9295;44.484;11.240;2023-02-18T04:40:11;5.50;99.90
18339;DHT22;9295;44.484;11.240;2023-02-18T04:42:40;5.40;99.90
18339;DHT22;9295;44.484;11.240;2023-02-18T04:45:10;5.30;99.90
18339;DHT22;9295;44.484;11.240;2023-02-18T04:47:39;5.20;99.90
18339;DHT22;9295;44.484;11.240;2023-02-18T04:50:08;5.10;99.90
18339;DHT22;9295;44.484;11.240;2023-02-18T04:52:37;5.10;99.90
18339;DHT22;9295;44.484;11.240;2023-02-18T04:55:06;5.10;99.90
18339;DHT22;9295;44.484;11.240;2023-02-18T04:57:34;5.10;99.90
18339;DHT22;9295;44.484;11.240;2023-02-18T05:00:04;5.20;99.90
18339;DHT22;9295;44.484;11.240;2023-02-18T05:02:34;5.20;99.90
18339;DHT22;9295;44.484;11.240;2023-02-18T05:05:02;5.20;99.90
18339;DHT22;9295;44.484;11.240;2023-02-18T05:07:31;5.20;99.90
18339;DHT22;9295;44.484;11.240;2023-02-18T05:09:59;5.20;99.90
18339;DHT22;9295;44.484;11.240;2023-02-18T05:12:28;5.30;99.90
18339;DHT22;9295;44.484;11.240;2023-02-18T05:14:57;5.30;99.90
18339;DHT22;9295;44.484;11.240;2023-02-18T05:17:25;5.30;99.90
18339;DHT22;9295;44.484;11.240;2023-02-18T05:19:55;5.30;99.90
18339;DHT22;9295;44.484;11.240;2023-02-18T05:22:24;5.30;99.90
18339;DHT22;9295;44.484;11.240;2023-02-18T05:24:52;5.40;99.90
18339;DHT22;9295;44.484;11.240;2023-02-18T05:27:21;5.40;99.90
18339;DHT22;9295;44.484;11.240;2023-02-18T05:29:49;5.40;99.90
18339;DHT22;9295;44.484;11.240;2023-02-18T05:32:18;5.40;99.90
18339;DHT22;9295;44.484;11.240;2023-02-18T05:34:46;5.40;99.90
18339;DHT22;9295;44.484;11.240;2023-02-18T05:37:16;5.40;99.90
18339;DHT22;9295;44.484;11.240;2023-02-18T05:39:45;5.30;99.90
18339;DHT22;9295;44.484;11.240;2023-02-18T05:42:14;5.30;99.90
18339;DHT22;9295;44.484;11.240;2023-02-18T05:44:42;5.30;99.90
18339;DHT22;9295;44.484;11.240;2023-02-18T05:47:12;5.30;99.90
18339;DHT22;9295;44.484;11.240;2023-02-18T05:49:41;5.30;99.90
18339;DHT22;9295;44.484;11.240;2023-02-18T05:52:10;5.30;99.90
18339;DHT22;9295;44.484;11.240;2023-02-18T05:54:40;5.30;99.90
18339;DHT22;9295;44.484;11.240;2023-02-18T05:57:09;5.20;99.90
18339;DHT22;9295;44.484;11.240;2023-02-18T05:59:37;5.30;99.90
18339;DHT22;9295;44.484;11.240;2023-02-18T06:02:06;5.30;99.90
18339;DHT22;9295;44.484;11.240;2023-02-18T06:04:34;5.40;99.90
18339;DHT22;9295;44.484;11.240;2023-02-18T06:07:03;5.40;99.90
18339;DHT22;9295;44.484;11.240;2023-02-18T06:09:31;5.50;99.90
18339;DHT22;9295;44.484;11.240;2023-02-18T06:12:01;5.50;99.90
18339;DHT22;9295;44.484;11.240;2023-02-18T06:14:30;5.50;99.90
18339;DHT22;9295;44.484;11.240;2023-02-18T06:16:58;5.50;99.90
18339;DHT22;9295;44.484;11.240;2023-02-18T06:19:27;5.50;99.90
18339;DHT22;9295;44.484;11.240;2023-02-18T06:21:55;5.50;99.90
18339;DHT22;9295;44.484;11.240;2023-02-18T06:24:24;5.40;99.90
18339;DHT22;9295;44.484;11.240;2023-02-18T06:26:52;5.40;99.90
18339;DHT22;9295;44.484;11.240;2023-02-18T06:29:22;5.50;99.90
18339;DHT22;9295;44.484;11.240;2023-02-18T06:31:51;5.60;99.90
18339;DHT22;9295;44.484;11.240;2023-02-18T06:34:19;5.60;99.90
18339;DHT22;9295;44.484;11.240;2023-02-18T06:36:48;5.70;99.90
18339;DHT22;9295;44.484;11.240;2023-02-18T06:39:16;5.70;99.90
18339;DHT22;9295;44.484;11.240;2023-02-18T06:41:45;5.70;99.90
18339;DHT22;9295;44.484;11.240;2023-02-18T06:44:13;5.90;99.90
18339;DHT22;9295;44.484;11.240;2023-02-18T06:46:44;6.10;99.90
18339;DHT22;9295;44.484;11.240;2023-02-18T06:49:13;6.30;99.90
18339;DHT22;9295;44.484;11.240;2023-02-18T06:51:42;6.40;99.90
18339;DHT22;9295;44.484;11.240;2023-02-18T06:54:10;6.60;99.90
18339;DHT22;9295;44.484;11.240;2023-02-18T06:56:39;6.80;99.90
18339;DHT22;9295;44.484;11.240;2023-02-18T06:59:07;7.00;99.90
18339;DHT22;9295;44.484;11.240;2023-02-18T07:01:36;7.20;99.90
18339;DHT22;9295;44.484;11.240;2023-02-18T07:04:06;7.30;99.90
18339;DHT22;9295;44.484;11.240;2023-02-18T07:06:34;7.40;99.90
18339;DHT22;9295;44.484;11.240;2023-02-18T07:09:04;7.60;99.90
18339;DHT22;9295;44.484;11.240;2023-02-18T07:11:32;8.10;99.90
18339;DHT22;9295;44.484;11.240;2023-02-18T07:14:01;8.60;99.90
18339;DHT22;9295;44.484;11.240;2023-02-18T07:16:30;8.70;99.90
18339;DHT22;9295;44.484;11.240;2023-02-18T07:18:58;9.00;99.90
18339;DHT22;9295;44.484;11.240;2023-02-18T07:21:28;9.70;99.90
18339;DHT22;9295;44.484;11.240;2023-02-18T07:23:57;10.30;99.90
18339;DHT22;9295;44.484;11.240;2023-02-18T07:26:26;10.70;99.90
18339;DHT22;9295;44.484;11.240;2023-02-18T07:28:54;11.10;99.90
18339;DHT22;9295;44.484;11.240;2023-02-18T07:31:23;11.40;99.90
18339;DHT22;9295;44.484;11.240;2023-02-18T07:33:53;11.50;99.90
18339;DHT22;9295;44.484;11.240;2023-02-18T07:36:21;11.60;99.90
18339;DHT22;9295;44.484;11.240;2023-02-18T07:38:51;11.70;99.90
18339;DHT22;9295;44.484;11.240;2023-02-18T07:41:21;11.90;99.90
18339;DHT22;9295;44.484;11.240;2023-02-18T07:43:50;12.20;99.90
18339;DHT22;9295;44.484;11.240;2023-02-18T07:46:18;12.60;99.90
18339;DHT22;9295;44.484;11.240;2023-02-18T07:48:47;13.10;99.90
18339;DHT22;9295;44.484;11.240;2023-02-18T07:51:15;13.50;99.90
18339;DHT22;9295;44.484;11.240;2023-02-18T07:53:44;13.70;99.90
18339;DHT22;9295;44.484;11.240;2023-02-18T07:56:14;13.90;99.90
18339;DHT22;9295;44.484;11.240;2023-02-18T07:58:42;14.00;99.90
18339;DHT22;9295;44.484;11.240;2023-02-18T08:01:13;14.50;99.90
18339;DHT22;9295;44.484;11.240;2023-02-18T08:03:42;14.90;99.90
18339;DHT22;9295;44.484;11.240;2023-02-18T08:06:20;15.30;99.90
18339;DHT22;9295;44.484;11.240;2023-02-18T08:08:48;15.60;99.90
18339;DHT22;9295;44.484;11.240;2023-02-18T08:11:18;15.60;99.90
18339;DHT22;9295;44.484;11.240;2023-02-18T08:13:47;15.70;99.90
18339;DHT22;9295;44.484;11.240;2023-02-18T08:16:18;15.60;99.90
18339;DHT22;9295;44.484;11.240;2023-02-18T08:18:46;15.60;99.90
18339;DHT22;9295;44.484;11.240;2023-02-18T08:21:17;15.90;99.90
18339;DHT22;9295;44.484;11.240;2023-02-18T08:23:46;16.40;99.90
18339;DHT22;9295;44.484;11.240;2023-02-18T08:26:15;16.90;99.90
18339;DHT22;9295;44.484;11.240;2023-02-18T08:28:46;17.40;99.90
18339;DHT22;9295;44.484;11.240;2023-02-18T08:31:17;17.10;99.90
18339;DHT22;9295;44.484;11.240;2023-02-18T08:33:46;16.80;99.90
18339;DHT22;9295;44.484;11.240;2023-02-18T08:36:15;16.20;99.90
18339;DHT22;9295;44.484;11.240;2023-02-18T08:38:43;15.90;99.90
18339;DHT22;9295;44.484;11.240;2023-02-18T08:41:12;15.30;99.90
18339;DHT22;9295;44.484;11.240;2023-02-18T08:43:42;14.70;99.90
18339;DHT22;9295;44.484;11.240;2023-02-18T08:46:12;14.50;99.90
18339;DHT22;9295;44.484;11.240;2023-02-18T08:48:51;14.20;99.90
18339;DHT22;9295;44.484;11.240;2023-02-18T08:51:21;14.00;99.90
18339;DHT22;9295;44.484;11.240;2023-02-18T08:53:50;13.90;99.90
18339;DHT22;9295;44.484;11.240;2023-02-18T08:56:18;13.90;99.90
18339;DHT22;9295;44.484;11.240;2023-02-18T08:58:47;13.90;99.90
18339;DHT22;9295;44.484;11.240;2023-02-18T09:01:17;13.90;99.90
18339;DHT22;9295;44.484;11.240;2023-02-18T09:03:47;14.00;99.90
18339;DHT22;9295;44.484;11.240;2023-02-18T09:06:15;14.10;99.90
18339;DHT22;9295;44.484;11.240;2023-02-18T09:08:44;14.00;99.90
18339;DHT22;9295;44.484;11.240;2023-02-18T09:11:12;14.00;99.90
18339;DHT22;9295;44.484;11.240;2023-02-18T09:13:41;13.90;99.90
18339;DHT22;9295;44.484;11.240;2023-02-18T09:16:12;13.90;99.90
18339;DHT22;9295;44.484;11.240;2023-02-18T09:18:43;13.90;99.90
18339;DHT22;9295;44.484;11.240;2023-02-18T09:21:13;13.90;99.90
18339;DHT22;9295;44.484;11.240;2023-02-18T09:23:42;14.00;99.90
18339;DHT22;9295;44.484;11.240;2023-02-18T09:26:14;14.10;99.90
18339;DHT22;9295;44.484;11.240;2023-02-18T09:28:43;14.10;99.90
18339;DHT22;9295;44.484;11.240;2023-02-18T09:31:14;14.20;99.90
18339;DHT22;9295;44.484;11.240;2023-02-18T09:33:46;14.40;99.90
18339;DHT22;9295;44.484;11.240;2023-02-18T09:36:15;14.50;99.90
18339;DHT22;9295;44.484;11.240;2023-02-18T09:38:44;14.60;99.90
18339;DHT22;9295;44.484;11.240;2023-02-18T09:41:20;14.70;99.90
18339;DHT22;9295;44.484;11.240;2023-02-18T09:43:54;14.70;99.90
18339;DHT22;9295;44.484;11.240;2023-02-18T09:46:27;14.80;99.90
18339;DHT22;9295;44.484;11.240;2023-02-18T09:49:00;14.80;99.90
18339;DHT22;9295;44.484;11.240;2023-02-18T09:51:29;14.90;99.90
18339;DHT22;9295;44.484;11.240;2023-02-18T09:53:58;15.00;99.90
18339;DHT22;9295;44.484;11.240;2023-02-18T09:56:29;14.90;99.90
18339;DHT22;9295;44.484;11.240;2023-02-18T09:58:58;14.90;99.90
18339;DHT22;9295;44.484;11.240;2023-02-18T10:01:31;14.80;99.90
18339;DHT22;9295;44.484;11.240;2023-02-18T10:04:12;14.70;99.90
18339;DHT22;9295;44.484;11.240;2023-02-18T10:06:42;14.60;99.90
18339;DHT22;9295;44.484;11.240;2023-02-18T10:09:18;14.30;99.90
18339;DHT22;9295;44.484;11.240;2023-02-18T10:11:49;13.90;99.90
18339;DHT22;9295;44.484;11.240;2023-02-18T10:14:18;13.60;99.90
18339;DHT22;9295;44.484;11.240;2023-02-18T10:16:49;13.60;99.90
18339;DHT22;9295;44.484;11.240;2023-02-18T10:19:23;13.40;99.90
18339;DHT22;9295;44.484;11.240;2023-02-18T10:21:53;13.30;99.90
18339;DHT22;9295;44.484;11.240;2023-02-18T10:24:28;13.20;99.90
18339;DHT22;9295;44.484;11.240;2023-02-18T10:26:57;13.30;99.90
18339;DHT22;9295;44.484;11.240;2023-02-18T10:29:27;13.40;99.90
18339;DHT22;9295;44.484;11.240;2023-02-18T10:32:03;13.40;99.90
18339;DHT22;9295;44.484;11.240;2023-02-18T10:34:46;13.50;99.90
18339;DHT22;9295;44.484;11.240;2023-02-18T10:37:37;13.60;99.90
18339;DHT22;9295;44.484;11.240;2023-02-18T10:40:13;13.70;99.90
18339;DHT22;9295;44.484;11.240;2023-02-18T10:43:01;13.60;99.90
18339;DHT22;9295;44.484;11.240;2023-02-18T10:45:37;13.40;99.90
18339;DHT22;9295;44.484;11.240;2023-02-18T10:48:25;13.10;99.90
18339;DHT22;9295;44.484;11.240;2023-02-18T10:50:59;13.10;99.90
18339;DHT22;9295;44.484;11.240;2023-02-18T10:53:32;13.30;99.90
18339;DHT22;9295;44.484;11.240;2023-02-18T10:56:02;13.50;99.90
18339;DHT22;9295;44.484;11.240;2023-02-18T10:58:32;13.60;99.90
18339;DHT22;9295;44.484;11.240;2023-02-18T11:01:04;13.60;99.90
18339;DHT22;9295;44.484;11.240;2023-02-18T11:03:40;13.50;99.90
18339;DHT22;9295;44.484;11.240;2023-02-18T11:06:20;13.10;99.90
18339;DHT22;9295;44.484;11.240;2023-02-18T11:08:49;13.40;99.90
18339;DHT22;9295;44.484;11.240;2023-02-18T11:11:22;13.60;99.90
18339;DHT22;9295;44.484;11.240;2023-02-18T11:13:53;13.80;99.90
18339;DHT22;9295;44.484;11.240;2023-02-18T11:16:23;14.00;99.90
18339;DHT22;9295;44.484;11.240;2023-02-18T11:19:02;14.10;99.90
18339;DHT22;9295;44.484;11.240;2023-02-18T11:21:35;14.00;99.90
18339;DHT22;9295;44.484;11.240;2023-02-18T11:24:07;13.80;99.90
18339;DHT22;9295;44.484;11.240;2023-02-18T11:26:38;13.60;99.90
18339;DHT22;9295;44.484;11.240;2023-02-18T11:29:11;13.70;99.90
18339;DHT22;9295;44.484;11.240;2023-02-18T11:31:45;13.90;99.90
18339;DHT22;9295;44.484;11.240;2023-02-18T11:34:16;14.00;99.90
18339;DHT22;9295;44.484;11.240;2023-02-18T11:36:48;14.20;99.90
18339;DHT22;9295;44.484;11.240;2023-02-18T11:39:19;14.20;99.90
18339;DHT22;9295;44.484;11.240;2023-02-18T11:41:53;14.10;99.90
18339;DHT22;9295;44.484;11.240;2023-02-18T11:44:27;13.90;99.90
18339;DHT22;9295;44.484;11.240;2023-02-18T11:46:59;13.50;99.90
18339;DHT22;9295;44.484;11.240;2023-02-18T11:49:29;13.80;99.90
18339;DHT22;9295;44.484;11.240;2023-02-18T11:52:15;14.00;99.90
18339;DHT22;9295;44.484;11.240;2023-02-18T11:54:59;14.20;99.90
18339;DHT22;9295;44.484;11.240;2023-02-18T11:57:29;14.40;99.90
18339;DHT22;9295;44.484;11.240;2023-02-18T11:59:59;14.40;99.90
18339;DHT22;9295;44.484;11.240;2023-02-18T12:02:36;14.20;99.90
18339;DHT22;9295;44.484;11.240;2023-02-18T12:05:11;13.90;99.90
18339;DHT22;9295;44.484;11.240;2023-02-18T12:07:44;14.20;99.90
18339;DHT22;9295;44.484;11.240;2023-02-18T12:10:20;14.50;99.90
18339;DHT22;9295;44.484;11.240;2023-02-18T12:12:55;14.60;99.90
18339;DHT22;9295;44.484;11.240;2023-02-18T12:15:31;14.80;99.90
18339;DHT22;9295;44.484;11.240;2023-02-18T12:18:14;14.70;99.90
18339;DHT22;9295;44.484;11.240;2023-02-18T12:21:02;14.50;99.90
18339;DHT22;9295;44.484;11.240;2023-02-18T12:23:39;14.30;99.90
18339;DHT22;9295;44.484;11.240;2023-02-18T12:26:21;14.40;99.90
18339;DHT22;9295;44.484;11.240;2023-02-18T12:29:04;14.30;99.90
18339;DHT22;9295;44.484;11.240;2023-02-18T12:32:04;14.40;99.90
18339;DHT22;9295;44.484;11.240;2023-02-18T12:34:54;14.50;99.90
18339;DHT22;9295;44.484;11.240;2023-02-18T12:37:44;14.60;99.90
18339;DHT22;9295;44.484;11.240;2023-02-18T12:43:14;14.30;99.90
18339;DHT22;9295;44.484;11.240;2023-02-18T12:46:00;14.20;99.90
18339;DHT22;9295;44.484;11.240;2023-02-18T12:48:41;14.50;99.90
18339;DHT22;9295;44.484;11.240;2023-02-18T12:51:27;14.70;99.90
18339;DHT22;9295;44.484;11.240;2023-02-18T12:54:32;14.80;99.90
18339;DHT22;9295;44.484;11.240;2023-02-18T12:57:25;14.80;99.90
18339;DHT22;9295;44.484;11.240;2023-02-18T13:03:21;14.20;99.90
18339;DHT22;9295;44.484;11.240;2023-02-18T13:05:59;14.50;99.90
18339;DHT22;9295;44.484;11.240;2023-02-18T13:08:39;14.60;99.90
18339;DHT22;9295;44.484;11.240;2023-02-18T13:11:19;14.70;99.90
18339;DHT22;9295;44.484;11.240;2023-02-18T13:13:57;14.70;99.90
18339;DHT22;9295;44.484;11.240;2023-02-18T13:16:28;14.80;99.90
18339;DHT22;9295;44.484;11.240;2023-02-18T13:19:01;14.70;99.90
18339;DHT22;9295;44.484;11.240;2023-02-18T13:21:31;14.70;99.90
18339;DHT22;9295;44.484;11.240;2023-02-18T13:24:02;14.80;99.90
18339;DHT22;9295;44.484;11.240;2023-02-18T13:26:33;14.90;99.90
18339;DHT22;9295;44.484;11.240;2023-02-18T13:29:21;14.90;99.90
18339;DHT22;9295;44.484;11.240;2023-02-18T13:32:00;15.00;99.90
18339;DHT22;9295;44.484;11.240;2023-02-18T13:34:38;14.90;99.90
18339;DHT22;9295;44.484;11.240;2023-02-18T13:37:17;14.70;99.90
18339;DHT22;9295;44.484;11.240;2023-02-18T13:39:50;14.70;99.90
18339;DHT22;9295;44.484;11.240;2023-02-18T13:42:26;14.70;99.90
18339;DHT22;9295;44.484;11.240;2023-02-18T13:45:22;15.00;99.90
18339;DHT22;9295;44.484;11.240;2023-02-18T13:47:53;15.20;99.90
18339;DHT22;9295;44.484;11.240;2023-02-18T13:50:28;15.30;99.90
18339;DHT22;9295;44.484;11.240;2023-02-18T13:53:12;15.40;99.90
18339;DHT22;9295;44.484;11.240;2023-02-18T13:55:49;15.20;99.90
18339;DHT22;9295;44.484;11.240;2023-02-18T13:58:21;15.20;99.90
18339;DHT22;9295;44.484;11.240;2023-02-18T14:00:55;15.20;99.90
18339;DHT22;9295;44.484;11.240;2023-02-18T14:03:34;15.30;99.90
18339;DHT22;9295;44.484;11.240;2023-02-18T14:06:14;15.40;99.90
18339;DHT22;9295;44.484;11.240;2023-02-18T14:08:43;15.40;99.90
18339;DHT22;9295;44.484;11.240;2023-02-18T14:11:40;15.30;99.90
18339;DHT22;9295;44.484;11.240;2023-02-18T14:17:35;15.10;99.90
18339;DHT22;9295;44.484;11.240;2023-02-18T14:20:29;15.00;99.90
18339;DHT22;9295;44.484;11.240;2023-02-18T14:22:59;15.10;99.90
18339;DHT22;9295;44.484;11.240;2023-02-18T14:25:35;15.20;99.90
18339;DHT22;9295;44.484;11.240;2023-02-18T14:28:35;15.20;99.90
18339;DHT22;9295;44.484;11.240;2023-02-18T14:37:31;15.10;99.90
18339;DHT22;9295;44.484;11.240;2023-02-18T14:43:05;15.30;99.90
18339;DHT22;9295;44.484;11.240;2023-02-18T14:45:54;15.30;99.90
18339;DHT22;9295;44.484;11.240;2023-02-18T14:48:40;15.30;99.90
18339;DHT22;9295;44.484;11.240;2023-02-18T14:51:14;15.20;99.90
18339;DHT22;9295;44.484;11.240;2023-02-18T14:53:44;15.20;99.90
18339;DHT22;9295;44.484;11.240;2023-02-18T14:56:15;15.20;99.90
18339;DHT22;9295;44.484;11.240;2023-02-18T14:58:47;15.20;99.90
18339;DHT22;9295;44.484;11.240;2023-02-18T15:01:18;15.30;99.90
18339;DHT22;9295;44.484;11.240;2023-02-18T15:03:48;15.40;99.90
18339;DHT22;9295;44.484;11.240;2023-02-18T15:06:27;15.30;99.90
18339;DHT22;9295;44.484;11.240;2023-02-18T15:08:58;15.40;99.90
18339;DHT22;9295;44.484;11.240;2023-02-18T15:11:35;15.20;99.90
18339;DHT22;9295;44.484;11.240;2023-02-18T15:14:09;15.00;99.90
18339;DHT22;9295;44.484;11.240;2023-02-18T15:16:41;15.00;99.90
18339;DHT22;9295;44.484;11.240;2023-02-18T15:19:13;15.10;99.90
18339;DHT22;9295;44.484;11.240;2023-02-18T15:21:45;15.20;99.90
18339;DHT22;9295;44.484;11.240;2023-02-18T15:24:24;15.20;99.90
18339;DHT22;9295;44.484;11.240;2023-02-18T15:26:55;15.20;99.90
18339;DHT22;9295;44.484;11.240;2023-02-18T15:29:26;15.00;99.90
18339;DHT22;9295;44.484;11.240;2023-02-18T15:31:56;14.90;99.90
18339;DHT22;9295;44.484;11.240;2023-02-18T15:34:36;14.90;99.90
18339;DHT22;9295;44.484;11.240;2023-02-18T15:37:08;14.90;99.90
18339;DHT22;9295;44.484;11.240;2023-02-18T15:39:42;15.00;99.90
18339;DHT22;9295;44.484;11.240;2023-02-18T15:42:16;15.00;99.90
18339;DHT22;9295;44.484;11.240;2023-02-18T15:44:49;14.90;99.90
18339;DHT22;9295;44.484;11.240;2023-02-18T15:47:19;14.80;99.90
18339;DHT22;9295;44.484;11.240;2023-02-18T15:49:51;14.50;99.90
18339;DHT22;9295;44.484;11.240;2023-02-18T15:52:26;14.60;99.90
18339;DHT22;9295;44.484;11.240;2023-02-18T15:55:01;14.60;99.90
18339;DHT22;9295;44.484;11.240;2023-02-18T15:57:31;14.60;99.90
18339;DHT22;9295;44.484;11.240;2023-02-18T16:00:04;14.80;99.90
18339;DHT22;9295;44.484;11.240;2023-02-18T16:02:33;14.80;99.90
18339;DHT22;9295;44.484;11.240;2023-02-18T16:05:11;14.80;99.90
18339;DHT22;9295;44.484;11.240;2023-02-18T16:07:50;14.60;99.90
18339;DHT22;9295;44.484;11.240;2023-02-18T16:10:22;14.30;99.90
18339;DHT22;9295;44.484;11.240;2023-02-18T16:12:53;14.20;99.90
18339;DHT22;9295;44.484;11.240;2023-02-18T16:15:25;14.20;99.90
18339;DHT22;9295;44.484;11.240;2023-02-18T16:17:54;14.20;99.90
18339;DHT22;9295;44.484;11.240;2023-02-18T16:20:29;14.30;99.90
18339;DHT22;9295;44.484;11.240;2023-02-18T16:23:00;14.20;99.90
18339;DHT22;9295;44.484;11.240;2023-02-18T16:25:40;14.20;99.90
18339;DHT22;9295;44.484;11.240;2023-02-18T16:28:13;14.00;99.90
18339;DHT22;9295;44.484;11.240;2023-02-18T16:30:43;13.60;99.90
18339;DHT22;9295;44.484;11.240;2023-02-18T16:33:12;13.40;99.90
18339;DHT22;9295;44.484;11.240;2023-02-18T16:35:42;13.40;99.90
18339;DHT22;9295;44.484;11.240;2023-02-18T16:38:18;13.50;99.90